Time;durP1;ratioP1;P1;durP2;ratioP2;P2;SDS_P1;SDS_P2;PMS_P1;PMS_P2;Temp;Humidity;BMP_temperature;BMP_pressure;BME280_temperature;BME280_humidity;BME280_pressure;Samples;Min_cycle;Max_cycle;Signal;HPM_P1;HPM_P2
2020/12/18 00:01:08;;;;;;;4.95;3.03;;;;;;;4.51;98.56;99861.78;6106897;23;19998;-85
2020/12/18 00:03:34;;;;;;;4.28;3.97;;;;;;;4.76;98.37;99867.63;6107317;23;20010;-84
2020/12/18 00:05:59;;;;;;;4.40;4.00;;;;;;;4.71;98.20;99868.72;6107829;23;20006;-84
2020/12/18 00:08:25;;;;;;;4.00;3.70;;;;;;;4.33;97.96;99836.09;6132263;22;20052;-85
2020/12/18 00:10:51;;;;;;;4.35;3.47;;;;;;;4.95;98.36;99910.53;6132538;23;20112;-84
2020/12/18 00:13:17;;;;;;;3.95;3.45;;;;;;;4.32;98.34;99829.81;6108214;23;20071;-85
2020/12/18 00:15:43;;;;;;;2.72;2.53;;;;;;;5.07;97.70;99902.09;6106950;23;20196;-85
2020/12/18 00:18:09;;;;;;;4.80;3.97;;;;;;;4.26;97.35;99814.88;6131738;23;20006;-84
2020/12/18 00:20:38;;;;;;;4.55;3.70;;;;;;;4.39;96.93;99881.94;6133147;23;20009;-85
2020/12/18 00:23:04;;;;;;;2.28;2.10;;;;;;;4.82;97.30;99918.19;6130491;23;20021;-85
2020/12/18 00:25:30;;;;;;;5.28;4.85;;;;;;;4.16;97.61;99848.31;6105481;23;20006;-85
2020/12/18 00:27:55;;;;;;;12.95;3.13;;;;;;;4.00;97.81;99837.50;6105860;23;20097;-84
2020/12/18 00:30:21;;;;;;;3.42;3.15;;;;;;;3.99;98.02;99814.03;6106291;23;20025;-84
2020/12/18 00:32:47;;;;;;;2.80;2.55;;;;;;;3.89;97.86;99833.78;6106670;23;20006;-84
2020/12/18 00:35:13;;;;;;;3.60;3.40;;;;;;;4.19;98.29;99865.94;6130518;23;20002;-85
2020/12/18 00:37:39;;;;;;;3.33;3.13;;;;;;;4.33;98.59;99902.53;6105741;23;20029;-85
2020/12/18 00:40:06;;;;;;;4.70;3.25;;;;;;;4.13;98.67;99902.94;6106362;23;20481;-84
2020/12/18 00:42:32;;;;;;;5.88;4.32;;;;;;;3.67;98.80;99840.81;6129634;23;20037;-85
2020/12/18 00:44:57;;;;;;;5.88;2.97;;;;;;;4.20;99.13;99917.56;6103845;23;20002;-85
2020/12/18 00:47:24;;;;;;;2.10;2.00;;;;;;;3.58;99.90;99864.84;6104159;23;20010;-84
2020/12/18 00:49:49;;;;;;;15.80;5.03;;;;;;;4.02;100.00;99903.56;6102508;23;20032;-85
2020/12/18 00:52:15;;;;;;;2.78;2.55;;;;;;;3.72;100.00;99869.81;6103283;23;20439;-84
2020/12/18 00:54:41;;;;;;;2.45;2.35;;;;;;;3.92;99.89;99863.13;6104098;23;20006;-86
2020/12/18 00:57:06;;;;;;;4.18;3.80;;;;;;;3.93;100.00;99878.38;6103589;23;20002;-86
2020/12/18 00:59:32;;;;;;;5.38;3.25;;;;;;;3.90;99.80;99862.72;6103318;23;20081;-86
2020/12/18 01:01:59;;;;;;;3.05;2.85;;;;;;;3.66;100.00;99836.50;6127534;23;20471;-86
2020/12/18 01:04:26;;;;;;;13.45;5.35;;;;;;;3.51;99.82;99856.50;6103427;23;20040;-86
2020/12/18 01:06:54;;;;;;;2.97;2.70;;;;;;;3.74;100.00;99881.13;6103499;23;20427;-86
2020/12/18 01:09:23;;;;;;;1.27;1.27;;;;;;;3.56;100.00;99833.56;6102785;23;20064;-86
2020/12/18 01:11:51;;;;;;;3.78;3.55;;;;;;;3.61;100.00;99860.63;6102764;23;20041;-86
2020/12/18 01:14:18;;;;;;;1.30;0.95;;;;;;;3.80;100.00;99866.03;6103030;23;20010;-86
2020/12/18 01:16:55;;;;;;;3.55;3.25;;;;;;;3.76;100.00;99862.44;6102629;23;20017;-86
2020/12/18 01:19:21;;;;;;;8.52;3.58;;;;;;;3.40;100.00;99816.47;6102626;23;20033;-86
2020/12/18 01:21:49;;;;;;;14.00;2.72;;;;;;;3.36;100.00;99853.88;6102377;23;20430;-85
2020/12/18 01:24:19;;;;;;;2.58;2.45;;;;;;;3.15;100.00;99815.97;6101594;23;20017;-86
2020/12/18 01:26:48;;;;;;;4.00;2.17;;;;;;;3.95;100.00;99889.75;6101893;23;20002;-86
2020/12/18 01:29:14;;;;;;;2.08;1.92;;;;;;;3.79;100.00;99891.00;6102000;23;20075;-85
2020/12/18 01:31:39;;;;;;;5.75;5.32;;;;;;;3.34;100.00;99840.56;6102131;23;20442;-86
2020/12/18 01:34:05;;;;;;;2.50;1.45;;;;;;;3.12;100.00;99809.31;6101772;23;20006;-86
2020/12/18 01:36:31;;;;;;;2.13;1.75;;;;;;;3.94;100.00;99893.63;6101998;23;20017;-86
2020/12/18 01:38:56;;;;;;;1.70;1.70;;;;;;;3.36;100.00;99810.97;6101511;23;20036;-86
2020/12/18 01:41:22;;;;;;;6.03;3.33;;;;;;;3.36;100.00;99801.97;6102696;23;20006;-85
2020/12/18 01:43:48;;;;;;;2.97;2.70;;;;;;;3.62;100.00;99834.84;6104147;23;20002;-85
2020/12/18 01:46:15;;;;;;;3.30;3.00;;;;;;;3.53;100.00;99824.16;6103466;23;20037;-84
2020/12/18 01:48:42;;;;;;;1.60;1.30;;;;;;;3.25;100.00;99799.03;6103930;23;20016;-84
2020/12/18 01:51:11;;;;;;;0.53;0.53;;;;;;;3.23;100.00;99832.16;6103126;23;20085;-85
2020/12/18 01:53:40;;;;;;;1.17;1.17;;;;;;;3.59;100.00;99863.69;6101672;23;20296;-85
2020/12/18 01:56:09;;;;;;;1.60;1.50;;;;;;;3.36;100.00;99832.00;6101971;23;20013;-85
2020/12/18 01:58:38;;;;;;;3.03;2.85;;;;;;;3.35;100.00;99814.03;6100984;23;20056;-85
2020/12/18 02:01:06;;;;;;;11.95;2.90;;;;;;;3.67;99.87;99867.38;6100993;23;20014;-85
2020/12/18 02:03:33;;;;;;;2.00;1.90;;;;;;;3.88;99.81;99905.22;6101272;23;20006;-85
2020/12/18 02:06:04;;;;;;;0.98;0.98;;;;;;;3.53;100.00;99856.16;6100921;23;20435;-85
2020/12/18 02:08:30;;;;;;;1.83;1.10;;;;;;;3.56;100.00;99841.75;6165562;23;20018;-85
2020/12/18 02:10:56;;;;;;;1.00;0.98;;;;;;;3.58;100.00;99839.47;6229022;23;20092;-85
2020/12/18 02:13:23;;;;;;;1.83;1.73;;;;;;;3.24;99.50;99811.91;6228947;23;20059;-85
2020/12/18 02:15:51;;;;;;;3.13;2.08;;;;;;;3.71;100.00;99930.28;6228144;23;20010;-85
2020/12/18 02:18:18;;;;;;;3.35;0.90;;;;;;;3.46;100.00;99878.66;6227962;23;20045;-86
2020/12/18 02:20:43;;;;;;;3.13;2.72;;;;;;;3.64;100.00;99876.28;6228709;23;20096;-85
2020/12/18 02:23:09;;;;;;;1.17;1.15;;;;;;;3.76;100.00;99889.78;6227985;22;20017;-85
2020/12/18 02:25:38;;;;;;;1.50;1.45;;;;;;;3.26;100.00;99815.03;6228760;23;20002;-85
2020/12/18 02:28:04;;;;;;;2.65;1.63;;;;;;;3.51;100.00;99888.50;6229509;23;20401;-85
2020/12/18 02:30:30;;;;;;;1.88;1.77;;;;;;;3.56;100.00;99893.66;6229388;22;20071;-85
2020/12/18 02:32:55;;;;;;;1.33;1.33;;;;;;;3.74;100.00;99885.84;6230032;23;20089;-84
2020/12/18 02:35:21;;;;;;;1.98;1.88;;;;;;;3.42;100.00;99836.84;6229806;23;20032;-85
2020/12/18 02:37:47;;;;;;;1.10;1.10;;;;;;;3.55;100.00;99865.59;6231878;23;20430;-85
2020/12/18 02:40:12;;;;;;;3.42;3.13;;;;;;;3.63;100.00;99863.75;6232441;23;20351;-84
2020/12/18 02:42:38;;;;;;;2.85;1.40;;;;;;;3.79;100.00;99885.53;6232168;23;20032;-85
2020/12/18 02:45:03;;;;;;;1.30;1.20;;;;;;;3.23;100.00;99834.91;6227988;23;20092;-85
2020/12/18 02:47:29;;;;;;;3.53;1.23;;;;;;;3.39;100.00;99873.03;6228471;23;20076;-85
2020/12/18 02:49:54;;;;;;;0.95;0.95;;;;;;;3.68;99.67;99901.72;6227695;22;20014;-85
2020/12/18 02:52:20;;;;;;;1.80;1.70;;;;;;;3.60;100.00;99886.34;6227971;23;20351;-85
2020/12/18 02:54:46;;;;;;;0.68;0.68;;;;;;;3.31;100.00;99848.69;6227682;23;20043;-85
2020/12/18 02:57:11;;;;;;;0.90;0.90;;;;;;;3.06;100.00;99831.81;6227261;23;20014;-85
2020/12/18 02:59:37;;;;;;;1.58;0.93;;;;;;;3.31;100.00;99890.47;6227435;22;20020;-85
2020/12/18 03:02:02;;;;;;;1.25;1.25;;;;;;;3.01;100.00;99868.38;6227682;22;20014;-85
2020/12/18 03:04:28;;;;;;;0.88;0.88;;;;;;;3.08;100.00;99873.97;6227198;23;20393;-85
2020/12/18 03:06:53;;;;;;;0.47;0.47;;;;;;;3.06;100.00;99887.19;6226957;23;20017;-85
2020/12/18 03:09:19;;;;;;;0.80;0.80;;;;;;;2.83;100.00;99881.59;6110691;23;20026;-85
2020/12/18 03:11:44;;;;;;;0.65;0.65;;;;;;;2.85;100.00;99851.22;6099712;23;20030;-85
2020/12/18 03:14:10;;;;;;;1.20;1.20;;;;;;;2.90;100.00;99847.44;6100018;23;20010;-85
2020/12/18 03:16:39;;;;;;;0.95;0.95;;;;;;;2.40;100.00;99798.03;6100622;23;20013;-85
2020/12/18 03:19:05;;;;;;;1.95;1.27;;;;;;;2.94;100.00;99879.13;6099385;23;20435;-85
2020/12/18 03:21:30;;;;;;;0.77;0.77;;;;;;;3.14;100.00;99913.50;6100571;23;20010;-85
2020/12/18 03:23:56;;;;;;;1.77;1.67;;;;;;;2.85;100.00;99864.88;6099596;23;20032;-85
2020/12/18 03:26:21;;;;;;;0.95;0.95;;;;;;;2.57;100.00;99847.88;6098916;23;20014;-85
2020/12/18 03:34:41;;;;;;;0.45;0.45;;;;;;;2.98;98.55;99925.59;6156041;23;20032;-86
2020/12/18 03:37:07;;;;;;;1.35;1.35;;;;;;;2.03;99.55;99800.25;6130217;23;20009;-85
2020/12/18 03:39:34;;;;;;;3.58;2.78;;;;;;;2.41;99.78;99884.13;6129849;23;20382;-85
2020/12/18 03:42:00;;;;;;;1.13;1.00;;;;;;;2.07;100.00;99852.13;6129579;23;20032;-85
2020/12/18 03:44:25;;;;;;;1.17;1.17;;;;;;;2.52;100.00;99905.44;6128793;23;20490;-85
2020/12/18 03:46:51;;;;;;;0.82;0.82;;;;;;;2.17;100.00;99851.59;6128878;23;20005;-85
2020/12/18 03:49:16;;;;;;;0.93;0.93;;;;;;;2.43;100.00;99894.69;6129094;23;20089;-85
2020/12/18 03:51:42;;;;;;;1.33;1.33;;;;;;;1.83;99.74;99835.94;6129238;23;20002;-85
2020/12/18 03:54:07;;;;;;;1.17;1.17;;;;;;;1.55;99.96;99795.94;6128854;23;20044;-85
2020/12/18 03:59:19;;;;;;;0.63;0.63;;;;;;;1.48;100.00;99814.81;6129752;23;20022;-85
2020/12/18 04:01:44;;;;;;;2.42;2.15;;;;;;;1.93;99.99;99882.53;6099527;23;20370;-85
2020/12/18 04:04:10;;;;;;;0.50;0.50;;;;;;;1.93;100.00;99919.91;6100725;23;20367;-85
2020/12/18 04:06:55;;;;;;;1.63;1.60;;;;;;;2.00;99.84;99918.16;6099659;23;20033;-85
2020/12/18 04:09:22;;;;;;;1.88;1.67;;;;;;;1.76;99.94;99912.81;6100978;23;20010;-85
2020/12/18 04:12:06;;;;;;;1.05;1.05;;;;;;;1.53;100.00;99885.34;6101434;23;20016;-85
2020/12/18 04:14:31;;;;;;;0.60;0.60;;;;;;;1.46;99.87;99868.03;6100374;23;20006;-85
2020/12/18 04:16:57;;;;;;;0.30;0.30;;;;;;;1.69;100.00;99888.09;6101026;23;20010;-85
2020/12/18 04:19:22;;;;;;;0.35;0.35;;;;;;;1.29;99.04;99835.66;6101096;23;20047;-85
2020/12/18 04:21:48;;;;;;;0.55;0.55;;;;;;;1.48;99.81;99901.94;6100949;23;20014;-85
2020/12/18 04:24:14;;;;;;;0.30;0.30;;;;;;;1.41;100.00;99890.06;6101291;23;20029;-85
2020/12/18 04:26:39;;;;;;;0.95;0.95;;;;;;;1.54;100.00;99903.28;6101211;23;20012;-85
2020/12/18 04:29:05;;;;;;;1.08;1.02;;;;;;;1.46;100.00;99885.16;6101328;23;20010;-85
2020/12/18 04:31:30;;;;;;;1.00;1.00;;;;;;;1.48;100.00;99887.53;6100827;23;20010;-85
2020/12/18 04:33:56;;;;;;;2.90;0.80;;;;;;;1.32;100.00;99909.28;6101359;23;20093;-85
2020/12/18 04:36:21;;;;;;;0.57;0.57;;;;;;;1.45;100.00;99929.84;6101264;23;20324;-85
2020/12/18 04:38:47;;;;;;;1.70;1.65;;;;;;;1.57;100.00;99923.56;6101320;23;20457;-85
2020/12/18 04:41:13;;;;;;;0.45;0.45;;;;;;;0.96;100.00;99835.91;6100748;23;20029;-85
2020/12/18 04:43:39;;;;;;;0.25;0.25;;;;;;;1.72;100.00;99946.56;6100823;23;20006;-85
2020/12/18 04:46:08;;;;;;;1.45;1.05;;;;;;;1.47;100.00;99911.25;6101548;23;20006;-85
2020/12/18 04:48:35;;;;;;;0.98;0.98;;;;;;;1.18;100.00;99868.03;6101193;23;20076;-85
2020/12/18 04:51:02;;;;;;;0.40;0.40;;;;;;;1.37;100.00;99895.41;6100752;23;20013;-84
2020/12/18 04:53:32;;;;;;;1.40;1.40;;;;;;;1.74;100.00;99936.13;6100817;23;20014;-85
2020/12/18 04:56:08;;;;;;;0.65;0.65;;;;;;;1.81;100.00;99955.41;6101009;23;20093;-84
2020/12/18 04:58:35;;;;;;;1.67;1.58;;;;;;;1.81;100.00;99939.03;6112944;23;20021;-85
2020/12/18 05:01:01;;;;;;;0.40;0.40;;;;;;;1.74;100.00;99939.63;6125533;23;20090;-84
2020/12/18 05:03:32;;;;;;;1.85;1.35;;;;;;;1.84;100.00;99954.69;6125543;23;20065;-85
2020/12/18 05:05:59;;;;;;;0.30;0.30;;;;;;;1.87;100.00;99954.78;6126569;23;20006;-85
2020/12/18 05:08:26;;;;;;;0.40;0.40;;;;;;;1.62;99.90;99918.69;6126259;23;20006;-85
2020/12/18 05:10:51;;;;;;;2.25;2.05;;;;;;;1.80;99.68;99942.91;6125024;23;20039;-85
2020/12/18 05:13:19;;;;;;;0.30;0.30;;;;;;;1.72;99.91;99914.66;6125217;22;20089;-85
2020/12/18 05:15:45;;;;;;;0.65;0.65;;;;;;;1.38;99.56;99888.84;6255151;22;20010;-85
2020/12/18 05:18:11;;;;;;;1.27;1.25;;;;;;;1.81;99.64;99947.22;6254695;22;20007;-85
2020/12/18 05:20:37;;;;;;;1.10;1.10;;;;;;;1.73;99.48;99953.59;6254599;22;20014;-85
2020/12/18 05:23:09;;;;;;;1.83;1.73;;;;;;;1.39;98.35;99901.28;6126449;23;20021;-84
2020/12/18 05:25:37;;;;;;;0.55;0.55;;;;;;;1.58;98.01;99936.06;6125022;23;20002;-84
2020/12/18 05:28:04;;;;;;;1.40;1.30;;;;;;;1.06;97.95;99908.88;6254553;22;20009;-84
2020/12/18 05:30:29;;;;;;;0.80;0.80;;;;;;;1.32;98.77;99947.38;6161451;23;20092;-85
2020/12/18 05:32:56;;;;;;;0.43;0.43;;;;;;;1.03;99.77;99932.09;6153695;23;20010;-84
2020/12/18 05:35:22;;;;;;;2.22;2.13;;;;;;;1.22;99.34;99940.47;6264655;22;20014;-84
2020/12/18 05:37:50;;;;;;;0.70;0.70;;;;;;;0.39;99.73;99837.69;6166628;23;20010;-83
2020/12/18 05:40:16;;;;;;;;;;;;;;;1.19;100.00;99951.25;6137556;23;20032;-84
2020/12/18 05:42:43;;;;;;;1.05;1.02;;;;;;;0.74;100.00;99902.44;6134390;23;19905;-85
2020/12/18 05:45:17;;;;;;;0.60;0.60;;;;;;;0.49;100.00;99909.03;6139926;23;20097;-84
2020/12/18 05:47:56;;;;;;;0.80;0.55;;;;;;;0.15;100.00;99829.53;6269351;22;20010;-85
2020/12/18 05:50:30;;;;;;;1.20;1.20;;;;;;;0.93;100.00;99957.06;6137852;23;20038;-84
2020/12/18 05:53:00;;;;;;;0.20;0.20;;;;;;;0.35;100.00;99879.47;6128244;23;20017;-85
2020/12/18 05:55:26;;;;;;;0.57;0.57;;;;;;;0.71;100.00;99893.06;6255026;22;20067;-85
2020/12/18 05:57:55;;;;;;;0.63;0.60;;;;;;;0.64;100.00;99903.72;6255405;22;20038;-85
2020/12/18 06:00:22;;;;;;;3.30;0.85;;;;;;;0.69;100.00;99894.53;6255890;22;20006;-85
2020/12/18 06:03:00;;;;;;;0.85;0.85;;;;;;;1.14;100.00;99976.00;6256149;22;20061;-84
2020/12/18 06:05:26;;;;;;;0.90;0.75;;;;;;;0.78;100.00;99947.66;6255239;22;20017;-85
2020/12/18 06:07:53;;;;;;;1.83;1.50;;;;;;;0.81;100.00;99922.50;6124972;22;20021;-85
2020/12/18 06:10:23;;;;;;;0.60;0.60;;;;;;;1.17;100.00;99967.94;6100916;23;20064;-85
2020/12/18 06:12:50;;;;;;;0.75;0.75;;;;;;;1.09;100.00;99919.06;6106091;23;20006;-84
2020/12/18 06:15:18;;;;;;;0.52;0.52;;;;;;;1.34;100.00;99969.59;6105893;23;20021;-84
2020/12/18 06:17:48;;;;;;;1.20;1.20;;;;;;;0.87;100.00;99922.28;6102909;23;20010;-84
2020/12/18 06:20:15;;;;;;;1.95;1.85;;;;;;;1.14;100.00;99970.56;6114177;23;19997;-87
2020/12/18 06:22:58;;;;;;;0.43;0.43;;;;;;;0.95;100.00;99899.59;6119394;23;20036;-87
2020/12/18 06:25:25;;;;;;;0.85;0.85;;;;;;;0.68;99.83;99863.81;6144415;23;19989;-87
2020/12/18 06:27:59;;;;;;;0.30;0.30;;;;;;;0.60;98.97;99896.59;6117713;23;20035;-87
2020/12/18 06:33:07;;;;;;;3.17;2.13;;;;;;;0.81;100.00;99960.59;6263670;22;20003;-87
2020/12/18 06:35:37;;;;;;;1.42;1.42;;;;;;;0.34;100.00;99905.88;6308266;22;19995;-87
2020/12/18 06:38:13;;;;;;;0.88;0.88;;;;;;;1.22;100.00;99989.47;6308975;22;20007;-87
2020/12/18 06:40:44;;;;;;;1.40;1.38;;;;;;;1.52;100.00;99989.97;6336010;22;20011;-87
2020/12/18 06:43:14;;;;;;;9.05;3.95;;;;;;;1.59;100.00;99992.13;6284293;22;19987;-88
2020/12/18 06:48:40;;;;;;;1.83;1.73;;;;;;;1.69;100.00;99988.91;6326482;22;20010;-88
2020/12/18 06:51:28;;;;;;;1.27;1.27;;;;;;;1.55;100.00;99983.84;6285754;22;19991;-88
2020/12/18 06:54:27;;;;;;;1.27;1.27;;;;;;;0.75;100.00;99925.78;6284170;22;20010;-88
2020/12/18 06:57:16;;;;;;;4.88;2.05;;;;;;;0.82;100.00;99898.81;6297379;22;20011;-89
2020/12/18 06:59:47;;;;;;;2.42;2.33;;;;;;;0.86;100.00;99907.09;6335792;22;20030;-88
2020/12/18 07:02:38;;;;;;;3.85;2.05;;;;;;;1.23;100.00;99999.22;6217905;22;20048;-87
2020/12/18 07:05:37;;;;;;;5.95;4.30;;;;;;;0.67;100.00;99899.50;6297973;22;20047;-88
2020/12/18 07:08:15;;;;;;;3.65;2.55;;;;;;;0.94;100.00;99871.59;6336271;22;19995;-88
2020/12/18 07:10:44;;;;;;;1.90;1.80;;;;;;;1.14;100.00;99965.13;6309862;22;19998;-88
2020/12/18 07:13:19;;;;;;;4.85;4.47;;;;;;;0.71;100.00;99905.88;6332890;22;20010;-88
2020/12/18 07:15:55;;;;;;;7.25;6.55;;;;;;;1.05;100.00;99901.84;6246647;22;20014;-87
2020/12/18 07:18:29;;;;;;;5.57;5.13;;;;;;;1.58;100.00;99961.34;6098294;23;19994;-88
2020/12/18 07:21:04;;;;;;;18.35;7.10;;;;;;;1.79;100.00;99930.41;6124202;22;20034;-86
2020/12/18 07:23:33;;;;;;;8.10;3.28;;;;;;;1.42;100.00;99900.59;6118284;22;19999;-86
2020/12/18 07:26:02;;;;;;;2.33;1.98;;;;;;;1.48;99.61;99906.59;6140126;22;20009;-87
2020/12/18 07:28:37;;;;;;;5.45;3.92;;;;;;;1.78;98.74;99928.84;6202716;22;20064;-87
2020/12/18 07:31:06;;;;;;;8.63;7.55;;;;;;;2.43;98.07;100023.66;6179251;22;20029;-88
2020/12/18 07:36:19;;;;;;;2.83;2.63;;;;;;;2.20;96.65;99984.50;6137179;22;20026;-87
2020/12/18 07:38:46;;;;;;;5.60;4.47;;;;;;;1.81;98.05;99939.03;6131494;22;20044;-88
2020/12/18 07:41:15;;;;;;;2.53;2.33;;;;;;;1.94;96.69;99967.81;6147680;23;20045;-89
2020/12/18 07:43:46;;;;;;;3.25;3.00;;;;;;;1.59;95.59;99934.91;6124151;22;19983;-87
2020/12/18 07:46:19;;;;;;;0.90;0.90;;;;;;;1.96;95.04;99987.34;6147286;22;20102;-88
2020/12/18 07:48:49;;;;;;;1.85;1.77;;;;;;;2.43;94.07;99974.56;6147590;22;20014;-89
2020/12/18 09:12:51;;;;;;;3.92;3.60;;;;;;;4.89;82.52;99946.44;6103381;22;20029;-88
2020/12/18 09:15:26;;;;;;;1.83;1.75;;;;;;;5.21;79.67;99926.97;6124530;22;20026;-89
2020/12/18 09:18:06;;;;;;;1.92;1.83;;;;;;;5.03;80.49;99951.34;6124719;23;19998;-88
2020/12/18 09:20:35;;;;;;;2.28;1.60;;;;;;;5.30;80.70;99933.72;6150667;23;20014;-88
2020/12/18 09:23:12;;;;;;;20.73;3.13;;;;;;;5.59;79.28;99918.47;6126678;23;20002;-88
2020/12/18 11:42:06;;;;;;;2.67;2.50;;;;;;;6.38;84.50;99810.31;6138537;22;20051;-88
2020/12/18 11:44:45;;;;;;;4.68;3.72;;;;;;;6.13;84.34;99780.72;6124499;23;20078;-88
2020/12/18 12:18:14;;;;;;;5.97;5.15;;;;;;;6.40;81.49;99770.31;6147947;22;20065;-87
2020/12/18 12:23:25;;;;;;;1.80;1.70;;;;;;;6.66;79.91;99776.75;6126049;22;20010;-89
2020/12/18 12:46:39;;;;;;;3.92;3.15;;;;;;;6.58;80.28;99769.66;6104971;22;20044;-88
2020/12/18 12:54:26;;;;;;;7.03;5.70;;;;;;;6.90;80.88;99809.06;6141466;22;20018;-89
2020/12/18 13:07:13;;;;;;;2.28;2.17;;;;;;;6.71;80.97;99781.88;6105816;22;20138;-89
2020/12/18 13:40:22;;;;;;;6.15;4.15;;;;;;;6.53;80.99;99793.56;6070191;22;20037;-87
2020/12/18 13:42:49;;;;;;;4.47;3.55;;;;;;;7.14;81.37;99877.09;6103730;22;20026;-88
2020/12/18 15:38:35;;;;;;;6.22;4.90;;;;;;;3.53;98.29;99933.44;6078204;22;20043;-85
2020/12/18 15:41:06;;;;;;;4.57;3.67;;;;;;;3.50;98.21;99906.84;6148153;22;20025;-87
2020/12/18 15:48:55;;;;;;;1.70;1.60;;;;;;;2.90;97.92;99883.69;6149049;22;20053;-87
2020/12/18 15:51:20;;;;;;;;;;;;;;;3.57;97.90;99952.63;6097066;23;20002;-87
2020/12/18 16:22:55;;;;;;;1.75;1.27;;;;;;;1.92;97.51;99949.09;6136714;22;20033;-88
2020/12/18 16:25:22;;;;;;;1.67;1.58;;;;;;;1.77;97.50;99930.75;6130802;22;20006;-89
2020/12/18 16:27:49;;;;;;;7.95;1.48;;;;;;;1.60;97.11;99929.13;6121899;23;20406;-88
2020/12/18 16:30:24;;;;;;;1.48;1.38;;;;;;;2.01;96.82;99976.97;6120301;22;20026;-87
2020/12/18 16:32:50;;;;;;;1.35;1.35;;;;;;;1.89;98.26;99971.56;6121958;23;20025;-88
2020/12/18 16:35:16;;;;;;;5.25;4.55;;;;;;;2.11;98.99;99958.53;6226046;22;20019;-86
2020/12/18 16:40:31;;;;;;;4.03;3.15;;;;;;;2.03;99.98;99890.22;6288798;22;20015;-87
2020/12/18 16:42:57;;;;;;;9.75;6.93;;;;;;;2.25;100.00;99913.34;6261584;22;20012;-87
2020/12/18 16:45:22;;;;;;;4.65;3.70;;;;;;;2.67;100.00;99959.19;6259700;22;20034;-86
2020/12/18 16:47:48;;;;;;;4.63;4.22;;;;;;;2.31;99.77;99911.94;6259202;22;20018;-86
2020/12/18 16:50:17;;;;;;;5.63;5.10;;;;;;;2.94;99.61;99996.50;6243361;23;20004;-86
2020/12/18 17:08:14;;;;;;;3.70;3.40;;;;;;;3.18;98.15;99919.03;6101646;22;20033;-88
2020/12/18 17:10:40;;;;;;;6.90;6.35;;;;;;;3.06;98.18;99936.34;6112785;23;20049;-87
2020/12/18 17:13:06;;;;;;;18.27;3.53;;;;;;;3.71;98.40;100007.59;6066568;23;20014;-87
2020/12/18 17:18:08;;;;;;;1.25;1.15;;;;;;;3.66;98.55;99978.63;6053906;22;20026;-88
2020/12/18 17:20:34;;;;;;;3.17;2.50;;;;;;;3.70;98.60;99989.63;6122594;23;20006;-88
2020/12/18 17:23:00;;;;;;;3.67;3.42;;;;;;;3.66;98.68;99970.41;6120686;23;20045;-88
2020/12/18 17:25:27;;;;;;;3.00;2.83;;;;;;;3.58;98.87;99995.22;6120200;23;20030;-88
2020/12/18 17:27:55;;;;;;;4.03;3.67;;;;;;;3.58;98.33;99971.41;6121340;23;20040;-89
2020/12/18 17:30:21;;;;;;;3.70;3.42;;;;;;;3.55;98.16;99958.47;6121058;23;20052;-88
2020/12/18 17:32:49;;;;;;;3.15;2.95;;;;;;;3.64;98.67;99952.78;6121831;23;20002;-88
2020/12/18 17:35:15;;;;;;;3.35;3.08;;;;;;;4.24;98.63;100032.47;6121963;23;20006;-88
2020/12/18 17:37:41;;;;;;;3.28;3.10;;;;;;;3.53;97.71;99938.13;6120954;23;20074;-88
2020/12/18 17:45:26;;;;;;;4.18;3.92;;;;;;;4.44;96.36;100047.75;6147196;23;20010;-89
2020/12/18 17:47:52;;;;;;;5.30;4.80;;;;;;;3.65;96.11;99968.84;6122217;23;20059;-88
2020/12/18 17:50:18;;;;;;;2.67;2.40;;;;;;;4.31;97.20;100054.50;6108210;23;19991;-88
2020/12/18 17:52:47;;;;;;;2.45;2.25;;;;;;;3.98;96.37;100022.19;6070795;23;20037;-89
2020/12/18 17:55:12;;;;;;;9.50;4.18;;;;;;;4.43;95.70;100068.84;6091885;23;20037;-89
2020/12/18 17:57:40;;;;;;;2.20;1.83;;;;;;;4.42;95.80;100048.09;6093913;23;20015;-89
2020/12/18 18:00:07;;;;;;;3.93;3.30;;;;;;;4.23;95.80;100048.09;6095221;23;20066;-89
2020/12/18 18:02:33;;;;;;;4.60;2.20;;;;;;;3.55;96.26;99980.34;6094714;23;20002;-89
2020/12/18 18:05:00;;;;;;;3.22;1.98;;;;;;;3.82;96.71;100016.81;6094937;23;20017;-89
2020/12/18 18:07:28;;;;;;;5.00;2.40;;;;;;;3.46;96.61;99946.97;6070583;23;20024;-89
2020/12/18 18:09:57;;;;;;;4.90;4.50;;;;;;;3.54;96.54;99970.56;6094972;23;20049;-89
2020/12/18 18:12:23;;;;;;;2.10;2.00;;;;;;;4.26;96.39;100043.88;6093551;23;20007;-89
2020/12/18 18:14:49;;;;;;;1.67;1.58;;;;;;;3.59;96.26;99961.28;6093913;23;20082;-89
2020/12/18 18:17:15;;;;;;;2.50;2.40;;;;;;;4.36;95.94;100085.09;6095124;23;20018;-89
2020/12/18 18:43:57;;;;;;;4.25;3.88;;;;;;;4.01;94.09;99986.75;6149029;22;20013;-89
2020/12/18 18:46:23;;;;;;;1.77;1.75;;;;;;;4.01;94.40;99983.22;6152105;22;20042;-90
2020/12/18 19:43:53;;;;;;;5.18;4.78;;;;;;;5.02;93.33;100086.72;6089268;22;20022;-88
2020/12/18 20:00:13;;;;;;;4.85;2.75;;;;;;;4.46;93.08;100023.53;6084854;22;20028;-89
2020/12/18 20:02:44;;;;;;;7.25;3.67;;;;;;;4.28;93.26;99989.59;6100070;22;20006;-89
2020/12/18 20:07:51;;;;;;;3.53;3.22;;;;;;;4.68;93.27;100033.72;6134687;22;20010;-88
2020/12/18 20:10:20;;;;;;;2.90;2.80;;;;;;;4.90;92.89;100043.06;6139831;22;20013;-88
2020/12/18 20:12:59;;;;;;;3.67;3.45;;;;;;;5.22;92.91;100090.19;6113587;23;20325;-87
2020/12/18 20:17:59;;;;;;;6.13;5.63;;;;;;;4.79;92.71;100031.94;6137332;23;20028;-87
2020/12/18 20:20:26;;;;;;;7.25;5.47;;;;;;;4.56;92.56;100009.25;6092069;22;20033;-86
2020/12/18 20:22:55;;;;;;;8.63;7.35;;;;;;;4.53;93.58;100022.84;6118462;23;20029;-87
2020/12/18 20:25:23;;;;;;;13.35;3.55;;;;;;;4.69;93.64;100024.34;6096005;23;20018;-87
2020/12/18 20:27:49;;;;;;;6.82;5.43;;;;;;;5.01;93.28;100081.59;6142469;23;20002;-87
2020/12/18 20:30:15;;;;;;;8.85;6.40;;;;;;;4.54;93.35;100017.03;6117263;23;20108;-86
2020/12/18 20:32:41;;;;;;;5.18;4.88;;;;;;;4.50;92.75;99997.03;6116152;23;20020;-86
2020/12/18 20:35:07;;;;;;;12.02;3.92;;;;;;;5.21;93.11;100091.34;6115563;23;20030;-86
2020/12/18 20:37:36;;;;;;;5.07;4.65;;;;;;;5.10;93.11;100073.94;6114965;23;20006;-86
2020/12/18 20:40:05;;;;;;;7.68;3.95;;;;;;;4.96;92.95;100057.25;6114350;23;20014;-86
2020/12/18 20:42:34;;;;;;;4.63;3.03;;;;;;;4.41;92.83;100007.41;6116360;23;20010;-86
2020/12/18 20:45:00;;;;;;;4.28;3.92;;;;;;;4.45;93.47;100019.22;6117898;23;20063;-86
2020/12/18 20:47:26;;;;;;;3.25;3.05;;;;;;;4.58;93.52;100020.63;6118327;23;20016;-86
2020/12/18 20:49:53;;;;;;;4.43;4.22;;;;;;;4.45;93.16;99995.38;6120282;23;20002;-87
2020/12/18 20:57:40;;;;;;;4.60;3.50;;;;;;;4.31;93.58;100013.47;6104783;22;20254;-87
2020/12/18 21:00:08;;;;;;;3.87;1.73;;;;;;;4.26;93.48;100016.50;6125813;23;20013;-87
2020/12/18 21:05:11;;;;;;;3.05;2.85;;;;;;;4.29;93.54;100016.56;6096667;22;20021;-88
2020/12/18 21:10:14;;;;;;;3.05;2.90;;;;;;;4.22;93.79;100027.38;6143988;22;20030;-88
2020/12/18 21:15:09;;;;;;;4.10;2.50;;;;;;;3.97;94.11;99976.88;6323336;22;20019;-87
2020/12/18 21:17:38;;;;;;;2.08;1.98;;;;;;;4.20;94.86;100050.78;6293630;22;20018;-87
2020/12/18 21:20:05;;;;;;;4.88;3.35;;;;;;;3.79;95.21;100012.06;6296828;22;20007;-87
2020/12/18 21:22:31;;;;;;;10.75;4.03;;;;;;;3.69;95.60;99982.56;6302618;22;20004;-88
2020/12/18 21:24:57;;;;;;;4.88;3.45;;;;;;;4.23;96.22;100082.88;6299936;22;20014;-87
2020/12/18 21:27:23;;;;;;;1.98;1.88;;;;;;;3.75;95.65;100002.19;6293952;22;20014;-87
2020/12/18 21:29:49;;;;;;;8.80;2.35;;;;;;;4.09;95.47;100050.56;6299059;22;20000;-87
2020/12/18 21:35:07;;;;;;;3.75;3.55;;;;;;;3.59;95.79;100010.47;6149963;22;20016;-88
2020/12/18 21:40:08;;;;;;;7.07;3.67;;;;;;;3.56;95.87;100019.34;6134401;22;20030;-86
2020/12/18 21:42:34;;;;;;;6.10;5.70;;;;;;;3.76;96.61;100048.31;6164929;22;20023;-86
2020/12/18 21:45:01;;;;;;;3.17;3.08;;;;;;;3.89;96.26;100041.56;6313810;22;20007;-86
2020/12/18 21:47:27;;;;;;;7.13;4.45;;;;;;;3.94;96.66;100057.69;6317234;22;19999;-87
2020/12/18 21:49:53;;;;;;;3.63;3.33;;;;;;;3.86;96.36;100047.72;6265171;22;20150;-87
2020/12/18 21:52:18;;;;;;;5.88;3.25;;;;;;;3.43;96.29;99987.88;6241671;22;20338;-87
2020/12/18 21:54:44;;;;;;;1.67;1.58;;;;;;;3.33;95.44;99986.47;6233475;23;20044;-87
2020/12/18 21:57:10;;;;;;;3.47;2.80;;;;;;;3.35;96.15;100011.50;6131863;23;20439;-87
2020/12/18 21:59:35;;;;;;;3.15;2.97;;;;;;;3.63;96.27;100028.50;6132997;23;20013;-87
2020/12/18 22:02:01;;;;;;;2.53;2.33;;;;;;;3.68;95.82;100030.16;6232560;23;20435;-86
2020/12/18 22:04:27;;;;;;;6.50;1.88;;;;;;;3.60;95.25;100007.38;6229988;23;20437;-87
2020/12/18 22:06:53;;;;;;;2.25;2.15;;;;;;;3.83;94.71;100062.13;6132626;22;20028;-88